Time;durP1;ratioP1;P1;durP2;ratioP2;P2;SDS_P1;SDS_P2;PMS_P1;PMS_P2;Temp;Humidity;BMP_temperature;BMP_pressure;BME280_temperature;BME280_humidity;BME280_pressure;Samples;Min_cycle;Max_cycle;Signal;HPM_P1;HPM_P2
2022/10/05 00:01:32;;;;;;;3.42;1.85;;;;;;;9.28;69.46;94816.19;5146675;27;20052;-77
2022/10/05 00:04:18;;;;;;;4.75;2.17;;;;;;;9.34;69.53;94816.91;5146658;27;20339;-77
2022/10/05 00:06:49;;;;;;;3.42;1.73;;;;;;;9.29;69.51;94811.63;5146766;27;20071;-77
2022/10/05 00:09:22;;;;;;;7.82;1.92;;;;;;;9.29;70.12;94814.31;5146303;27;20343;-77
2022/10/05 00:11:49;;;;;;;3.60;1.88;;;;;;;9.29;70.13;94811.63;5146353;27;20224;-77
2022/10/05 00:14:17;;;;;;;3.50;1.70;;;;;;;9.25;70.44;94806.09;5146520;27;20026;-77
2022/10/05 00:16:42;;;;;;;7.88;2.10;;;;;;;9.26;70.88;94807.69;5146660;27;20062;-77
2022/10/05 00:19:18;;;;;;;6.50;2.33;;;;;;;9.24;71.20;94809.81;5146090;27;20031;-77
2022/10/05 00:21:43;;;;;;;6.30;2.58;;;;;;;9.26;71.20;94809.53;5146069;27;20022;-77
2022/10/05 00:24:10;;;;;;;5.25;2.67;;;;;;;9.24;71.48;94810.63;5146264;27;20019;-77
2022/10/05 00:26:35;;;;;;;7.55;2.42;;;;;;;9.24;71.31;94807.97;5145969;27;20015;-77
2022/10/05 00:29:05;;;;;;;5.95;1.90;;;;;;;9.24;71.02;94807.16;5145975;27;20107;-77
2022/10/05 00:31:34;;;;;;;3.75;1.60;;;;;;;9.26;71.16;94801.53;5145995;27;20019;-77
2022/10/05 00:33:59;;;;;;;3.92;1.67;;;;;;;9.23;71.36;94798.38;5145671;27;20097;-77
2022/10/05 00:36:25;;;;;;;8.50;1.60;;;;;;;9.27;70.99;94793.28;5145637;27;20072;-78
2022/10/05 00:38:51;;;;;;;3.95;1.85;;;;;;;9.22;70.78;94809.31;5144692;27;20027;-78
2022/10/05 00:41:35;;;;;;;5.20;1.77;;;;;;;9.22;70.55;94802.13;5145920;27;20033;-78
2022/10/05 00:44:13;;;;;;;8.65;1.90;;;;;;;9.24;70.25;94804.50;5145884;27;20019;-77
2022/10/05 00:46:55;;;;;;;4.55;1.80;;;;;;;9.25;70.10;94800.75;5145792;27;20216;-77
2022/10/05 00:49:55;;;;;;;3.80;1.70;;;;;;;9.24;69.79;94793.88;5145663;27;20249;-78
2022/10/05 00:52:50;;;;;;;3.05;2.05;;;;;;;9.28;69.84;94802.06;5145526;27;20097;-78
2022/10/05 00:55:25;;;;;;;4.75;1.88;;;;;;;9.27;69.59;94803.94;5110434;27;20151;-78
2022/10/05 00:58:09;;;;;;;4.28;1.90;;;;;;;9.32;69.46;94806.56;5145590;27;20046;-78
2022/10/05 01:01:04;;;;;;;2.92;1.60;;;;;;;9.30;69.30;94811.38;5145391;27;20038;-78
2022/10/05 01:03:38;;;;;;;4.03;2.15;;;;;;;9.29;69.54;94815.09;5130737;27;20417;-78
2022/10/05 01:06:22;;;;;;;3.58;2.00;;;;;;;9.29;69.47;94823.06;5145358;27;20030;-79
2022/10/05 01:09:09;;;;;;;2.20;1.50;;;;;;;9.28;69.33;94821.50;5145404;27;20067;-78
2022/10/05 01:11:43;;;;;;;3.03;1.83;;;;;;;9.30;69.44;94824.66;5145053;27;20019;-78
2022/10/05 01:14:20;;;;;;;2.63;1.73;;;;;;;9.30;69.48;94824.66;5145212;27;20011;-78
2022/10/05 01:16:51;;;;;;;4.53;2.08;;;;;;;9.35;69.70;94827.25;5145177;27;20023;-78
2022/10/05 01:19:58;;;;;;;4.97;2.23;;;;;;;9.36;69.98;94830.72;5145060;27;20042;-79
2022/10/05 01:22:57;;;;;;;10.02;1.88;;;;;;;9.32;70.13;94827.84;5144125;27;20046;-78
2022/10/05 01:26:05;;;;;;;5.72;1.83;;;;;;;9.32;70.00;94827.03;5145373;27;20222;-78
2022/10/05 01:28:36;;;;;;;3.45;1.63;;;;;;;9.38;70.24;94826.72;5106390;27;20039;-78
2022/10/05 01:31:13;;;;;;;4.35;1.60;;;;;;;9.37;70.08;94835.75;5145162;27;20216;-78
2022/10/05 01:33:55;;;;;;;3.47;1.50;;;;;;;9.39;70.11;94838.16;5144758;27;20022;-78
2022/10/05 01:36:47;;;;;;;5.55;1.60;;;;;;;9.35;70.09;94837.91;5144775;27;20027;-78
2022/10/05 01:39:25;;;;;;;2.92;1.90;;;;;;;9.30;70.31;94845.94;5143791;27;20038;-77
2022/10/05 01:42:08;;;;;;;4.93;1.90;;;;;;;9.29;70.57;94855.00;5144714;27;20041;-77
2022/10/05 01:45:04;;;;;;;7.13;2.20;;;;;;;9.24;70.61;94857.72;5144225;27;20154;-77
2022/10/05 01:47:41;;;;;;;3.50;1.63;;;;;;;9.19;70.60;94852.41;5144614;27;20034;-77
2022/10/05 01:50:21;;;;;;;2.15;1.60;;;;;;;9.19;70.91;94861.19;5144391;27;20024;-77
2022/10/05 01:53:07;;;;;;;5.15;2.30;;;;;;;9.19;71.07;94865.72;5144474;27;20333;-78
2022/10/05 01:56:00;;;;;;;2.90;1.50;;;;;;;9.19;71.28;94876.38;5144541;27;20190;-78
2022/10/05 01:58:39;;;;;;;4.10;2.20;;;;;;;9.22;71.11;94876.59;5144430;27;20045;-77
2022/10/05 02:01:18;;;;;;;5.57;2.63;;;;;;;9.25;70.84;94883.22;5144146;27;20037;-77
2022/10/05 02:03:56;;;;;;;9.13;3.38;;;;;;;9.19;71.25;94887.00;5144466;27;20031;-78
2022/10/05 02:06:26;;;;;;;5.28;3.42;;;;;;;9.13;71.38;94878.25;5144858;27;20018;-78
2022/10/05 02:09:08;;;;;;;14.15;3.70;;;;;;;9.12;71.55;94886.50;5143997;27;20090;-78
2022/10/05 02:11:37;;;;;;;9.38;3.88;;;;;;;9.09;71.79;94889.75;5144726;27;20044;-77
2022/10/05 02:14:10;;;;;;;5.90;3.20;;;;;;;9.01;71.98;94896.44;5126147;27;20027;-77
2022/10/05 02:16:41;;;;;;;8.00;4.18;;;;;;;8.96;72.25;94883.19;5144530;27;20306;-78
2022/10/05 02:19:19;;;;;;;15.43;3.47;;;;;;;8.92;72.14;94888.28;5144437;27;20015;-78
2022/10/05 02:21:50;;;;;;;10.30;3.65;;;;;;;8.89;72.40;94888.81;5144221;27;20019;-79
2022/10/05 02:24:33;;;;;;;6.68;3.53;;;;;;;8.83;72.14;94888.06;5144089;27;20266;-80
2022/10/05 02:27:01;;;;;;;6.13;4.38;;;;;;;8.80;72.37;94890.47;5144140;27;20094;-78
2022/10/05 02:29:31;;;;;;;12.82;5.15;;;;;;;8.72;72.50;94883.09;5144053;27;20217;-79
2022/10/05 02:32:02;;;;;;;8.90;4.53;;;;;;;8.66;72.68;94892.94;5125617;27;20018;-78
2022/10/05 02:34:34;;;;;;;13.65;4.15;;;;;;;8.62;72.70;94892.69;5143851;28;20023;-78
2022/10/05 02:37:23;;;;;;;11.15;3.72;;;;;;;8.58;72.38;94899.63;5144128;27;20034;-78
2022/10/05 02:40:15;;;;;;;8.85;4.25;;;;;;;8.45;73.13;94894.94;5143809;28;20057;-78
2022/10/05 02:42:43;;;;;;;10.50;5.13;;;;;;;8.36;73.42;94891.22;5144042;27;20046;-78
2022/10/05 02:45:25;;;;;;;7.57;3.85;;;;;;;8.31;73.61;94894.72;5143864;28;20034;-78
2022/10/05 02:47:56;;;;;;;6.15;4.45;;;;;;;8.26;73.76;94888.63;5143953;28;20220;-78
2022/10/05 02:50:31;;;;;;;10.13;4.28;;;;;;;8.21;73.86;94882.25;5144254;28;20086;-78
2022/10/05 02:53:18;;;;;;;8.02;3.88;;;;;;;8.17;74.23;94886.53;5143805;28;20023;-78
2022/10/05 02:55:57;;;;;;;8.30;4.32;;;;;;;8.04;74.72;94882.59;5143769;27;20030;-79
2022/10/05 02:58:27;;;;;;;7.55;3.60;;;;;;;8.07;74.94;94878.59;5148133;27;20027;-78
2022/10/05 03:00:56;;;;;;;6.72;4.10;;;;;;;8.00;75.10;94878.13;5147693;27;20027;-78
2022/10/05 03:03:38;;;;;;;32.03;6.30;;;;;;;7.99;75.26;94876.50;5148120;27;20023;-78
2022/10/05 03:06:14;;;;;;;9.18;3.83;;;;;;;7.95;75.11;94886.88;5148182;27;20221;-78
2022/10/05 03:08:56;;;;;;;8.10;4.38;;;;;;;7.93;75.15;94888.22;5147408;27;20023;-78
2022/10/05 03:11:49;;;;;;;9.52;5.53;;;;;;;7.80;75.35;94895.69;5147807;27;20058;-78
2022/10/05 03:14:25;;;;;;;10.68;5.00;;;;;;;7.76;75.76;94894.63;5147546;27;20023;-78
2022/10/05 03:17:02;;;;;;;7.55;4.40;;;;;;;7.77;75.88;94898.88;5147498;27;20019;-78
2022/10/05 03:19:48;;;;;;;9.10;4.80;;;;;;;7.78;76.00;94903.13;5147399;27;20046;-78
2022/10/05 03:22:36;;;;;;;12.18;4.38;;;;;;;7.77;75.98;94906.81;5147403;27;20045;-78
2022/10/05 03:25:39;;;;;;;8.80;5.18;;;;;;;7.77;75.69;94908.69;5147312;27;20019;-78
2022/10/05 03:28:27;;;;;;;9.30;5.18;;;;;;;7.74;75.50;94899.41;5144777;27;20396;-78
2022/10/05 03:30:55;;;;;;;8.30;4.93;;;;;;;7.71;75.51;94899.94;5147179;27;20035;-78
2022/10/05 03:33:39;;;;;;;7.10;4.55;;;;;;;7.71;75.29;94910.56;5147318;27;20023;-78
2022/10/05 03:36:23;;;;;;;9.40;5.13;;;;;;;7.66;75.30;94907.94;5147115;27;20127;-77
2022/10/05 03:38:49;;;;;;;8.50;4.82;;;;;;;7.62;75.30;94918.28;5146982;27;20344;-78
2022/10/05 03:41:27;;;;;;;8.77;5.72;;;;;;;7.60;75.57;94927.56;5147098;27;20031;-78
2022/10/05 03:44:04;;;;;;;12.68;5.35;;;;;;;7.59;75.39;94931.28;5147198;27;20259;-78
2022/10/05 03:46:54;;;;;;;11.27;6.35;;;;;;;7.51;75.70;94927.31;5146830;27;20098;-78
2022/10/05 03:49:29;;;;;;;18.45;6.03;;;;;;;7.49;75.47;94941.91;5147000;27;20225;-77
2022/10/05 03:52:03;;;;;;;10.15;6.40;;;;;;;7.44;75.78;94935.53;5147181;27;20319;-77
2022/10/05 03:54:35;;;;;;;16.77;6.00;;;;;;;7.41;75.81;94949.34;5146681;27;20025;-77
2022/10/05 03:57:17;;;;;;;9.70;5.93;;;;;;;7.36;75.71;94945.91;5146647;27;20023;-77
2022/10/05 04:00:00;;;;;;;13.23;5.82;;;;;;;7.32;76.25;94950.13;5146768;27;20237;-77
2022/10/05 04:02:31;;;;;;;11.63;6.38;;;;;;;7.28;76.43;94957.81;5146821;27;20030;-78
2022/10/05 04:05:12;;;;;;;13.60;6.43;;;;;;;7.25;76.24;94963.66;5146540;27;20034;-78
2022/10/05 04:07:45;;;;;;;13.25;6.20;;;;;;;7.19;76.78;94959.44;5146121;27;20051;-78
2022/10/05 04:10:47;;;;;;;8.02;5.40;;;;;;;7.17;77.08;94961.53;5146173;27;20038;-77
2022/10/05 04:13:38;;;;;;;15.18;6.00;;;;;;;7.08;77.48;94957.81;5120721;27;20104;-77
2022/10/05 04:16:22;;;;;;;13.45;6.95;;;;;;;7.06;77.41;94970.53;5146135;27;20023;-76
2022/10/05 04:19:43;;;;;;;9.48;5.60;;;;;;;7.05;77.48;94968.97;5146296;27;20023;-77
2022/10/05 04:22:20;;;;;;;19.92;6.00;;;;;;;7.00;77.53;94962.59;5128229;27;20063;-77
2022/10/05 04:25:11;;;;;;;15.15;6.53;;;;;;;6.99;77.62;94958.34;5145962;27;20305;-76
2022/10/05 04:27:41;;;;;;;9.18;6.22;;;;;;;7.04;77.55;94960.19;5146024;27;20338;-77
2022/10/05 04:30:17;;;;;;;12.57;6.20;;;;;;;7.06;77.69;94963.38;5145683;27;20070;-77
2022/10/05 04:32:51;;;;;;;16.65;6.15;;;;;;;7.08;77.45;94966.56;5145964;27;20225;-77
2022/10/05 04:35:41;;;;;;;9.10;5.78;;;;;;;7.14;77.22;94967.34;5146082;27;20247;-77
2022/10/05 04:38:21;;;;;;;9.00;6.28;;;;;;;7.16;77.16;94965.25;5145783;27;20027;-77
2022/10/05 04:41:00;;;;;;;11.68;5.80;;;;;;;7.18;77.24;94973.72;5145818;27;20034;-78
2022/10/05 04:43:31;;;;;;;11.68;6.00;;;;;;;7.22;77.15;94972.13;5145816;27;20026;-78
2022/10/05 04:46:50;;;;;;;11.55;5.90;;;;;;;7.25;77.19;94979.56;5145351;27;20019;-78
2022/10/05 04:49:37;;;;;;;7.75;5.55;;;;;;;7.27;77.53;94989.94;5062470;28;20070;-77
2022/10/05 04:52:22;;;;;;;13.45;6.78;;;;;;;7.25;77.99;94997.34;5145520;27;20045;-79
2022/10/05 04:55:15;;;;;;;13.00;6.93;;;;;;;7.26;78.04;95005.03;5145313;27;20019;-78
2022/10/05 04:57:49;;;;;;;9.70;5.85;;;;;;;7.28;78.77;95005.56;5145483;27;20019;-79
2022/10/05 05:00:23;;;;;;;18.40;6.63;;;;;;;7.28;78.67;95000.25;5145317;27;20018;-78
2022/10/05 05:03:10;;;;;;;11.90;6.95;;;;;;;7.33;78.51;94996.84;5145299;27;20224;-79
2022/10/05 05:05:54;;;;;;;16.70;6.25;;;;;;;7.38;78.92;95004.78;5145156;27;20202;-77
2022/10/05 05:08:23;;;;;;;10.25;6.53;;;;;;;7.52;78.85;94997.09;5145177;27;20023;-76
2022/10/05 05:11:18;;;;;;;16.38;6.60;;;;;;;7.55;79.02;94993.91;5145255;27;20049;-77
2022/10/05 05:14:03;;;;;;;19.05;6.78;;;;;;;7.52;79.85;94992.56;5145189;27;20023;-78
2022/10/05 05:16:42;;;;;;;20.30;6.13;;;;;;;7.56;80.46;94990.19;5144885;27;20037;-77
2022/10/05 05:19:37;;;;;;;11.27;5.13;;;;;;;7.63;81.09;94991.53;5144861;27;20068;-77
2022/10/05 05:22:24;;;;;;;8.95;4.32;;;;;;;7.74;81.29;94997.63;5144579;27;20019;-77
2022/10/05 05:24:59;;;;;;;9.00;4.50;;;;;;;7.89;80.55;94994.13;5144943;27;20249;-78
2022/10/05 05:28:00;;;;;;;7.95;3.78;;;;;;;8.07;80.75;95005.28;5145171;27;20035;-76
2022/10/05 05:31:03;;;;;;;6.30;3.33;;;;;;;8.24;79.13;94995.94;5145088;27;20031;-76
2022/10/05 05:33:47;;;;;;;5.32;3.78;;;;;;;8.43;77.12;95006.78;5061829;28;20024;-76
2022/10/05 05:36:24;;;;;;;5.53;3.65;;;;;;;8.63;76.06;95000.63;5138693;27;20102;-77
2022/10/05 05:39:24;;;;;;;21.90;6.75;;;;;;;8.68;76.51;94999.78;5144317;27;20023;-76
2022/10/05 05:42:10;;;;;;;19.25;7.00;;;;;;;8.78;75.83;95004.28;5126460;27;20087;-77
2022/10/05 05:44:46;;;;;;;10.95;6.40;;;;;;;8.86;75.32;95005.56;5144180;27;20049;-77
2022/10/05 05:47:36;;;;;;;11.02;6.45;;;;;;;8.92;74.53;95013.25;5144288;27;20261;-78
2022/10/05 05:50:17;;;;;;;15.35;6.85;;;;;;;8.99;74.14;95008.41;5144304;27;20014;-76
2022/10/05 05:53:09;;;;;;;15.88;7.38;;;;;;;9.10;74.04;95017.13;5144533;27;20094;-77
2022/10/05 05:55:40;;;;;;;19.97;7.17;;;;;;;9.17;74.37;95020.28;5140327;27;20333;-77
2022/10/05 05:58:27;;;;;;;13.57;6.57;;;;;;;9.24;74.15;95026.09;5144059;27;20029;-77
2022/10/05 06:01:00;;;;;;;9.52;6.40;;;;;;;9.37;72.90;95037.97;5144517;27;20265;-77
2022/10/05 06:03:38;;;;;;;16.75;6.53;;;;;;;9.42;72.29;95029.97;5144243;27;20086;-79
2022/10/05 06:06:08;;;;;;;12.30;5.65;;;;;;;9.50;71.72;95022.47;5144273;27;20056;-77
2022/10/05 06:08:43;;;;;;;13.45;7.15;;;;;;;9.58;71.47;95032.50;5144347;27;20034;-77
2022/10/05 06:11:16;;;;;;;16.30;6.70;;;;;;;9.66;71.40;95034.59;5144381;27;20023;-77
2022/10/05 06:13:42;;;;;;;17.17;6.07;;;;;;;9.76;71.38;95033.72;5144211;27;20034;-77
2022/10/05 06:16:22;;;;;;;20.33;4.97;;;;;;;9.83;70.76;95039.50;5144126;27;20035;-77
2022/10/05 06:18:54;;;;;;;8.23;4.13;;;;;;;9.92;68.93;95034.38;5143994;27;20068;-77
2022/10/05 06:21:46;;;;;;;7.47;3.42;;;;;;;9.95;68.16;95041.81;5143736;27;20063;-77
2022/10/05 06:24:28;;;;;;;7.10;3.72;;;;;;;9.99;68.38;95048.16;5144064;27;20395;-77
2022/10/05 06:27:15;;;;;;;16.30;6.00;;;;;;;10.04;70.05;95056.13;5144254;27;20026;-77
2022/10/05 06:30:01;;;;;;;10.50;6.18;;;;;;;10.08;69.98;95056.34;5143632;27;20039;-78
2022/10/05 06:32:32;;;;;;;13.05;6.18;;;;;;;10.20;70.47;95060.22;5143734;27;20019;-78
2022/10/05 06:35:11;;;;;;;12.75;4.95;;;;;;;10.28;68.80;95068.69;5143731;27;20038;-80
2022/10/05 06:38:15;;;;;;;17.50;5.25;;;;;;;10.35;67.97;95071.84;5143832;27;20023;-81
2022/10/05 06:41:18;;;;;;;15.00;6.00;;;;;;;10.45;68.38;95071.75;5140027;28;20110;-81
2022/10/05 06:43:52;;;;;;;23.38;6.45;;;;;;;10.49;67.92;95079.97;5125846;28;20379;-81
2022/10/05 06:46:30;;;;;;;17.42;6.88;;;;;;;10.55;68.03;95079.63;5143750;28;20061;-81
2022/10/05 06:49:02;;;;;;;14.10;7.07;;;;;;;10.66;67.44;95084.88;5143822;28;20053;-80
2022/10/05 06:51:35;;;;;;;12.68;6.90;;;;;;;10.72;67.50;95091.72;5143736;28;20148;-80
2022/10/05 06:54:06;;;;;;;19.40;6.93;;;;;;;10.69;67.50;95095.75;5143976;27;20044;-80
2022/10/05 06:56:39;;;;;;;16.80;7.43;;;;;;;10.79;67.34;95102.88;5143976;28;20217;-81
2022/10/05 06:59:27;;;;;;;18.15;6.85;;;;;;;10.82;67.35;95096.94;5143469;28;20228;-79
2022/10/05 07:02:06;;;;;;;16.88;7.38;;;;;;;10.89;66.59;95102.75;5143651;28;20031;-79
2022/10/05 07:05:01;;;;;;;16.88;7.88;;;;;;;10.95;66.45;95106.94;5143434;27;20027;-79
2022/10/05 07:07:34;;;;;;;16.77;8.20;;;;;;;10.99;66.46;95093.81;5143962;27;20027;-79
2022/10/05 07:10:51;;;;;;;13.15;7.05;;;;;;;11.00;66.98;95084.75;5143813;27;20025;-79
2022/10/05 07:13:20;;;;;;;12.48;5.13;;;;;;;10.95;66.18;95082.13;5112048;28;20062;-78
2022/10/05 07:15:51;;;;;;;8.88;3.53;;;;;;;10.99;65.63;95080.47;5143838;27;20053;-79
2022/10/05 07:18:46;;;;;;;7.35;3.30;;;;;;;10.99;65.05;95080.47;5143779;27;20027;-79
2022/10/05 07:21:41;;;;;;;22.70;4.07;;;;;;;10.96;65.98;95076.50;5143071;28;20035;-79
2022/10/05 07:24:28;;;;;;;7.68;3.83;;;;;;;11.02;65.10;95080.72;5143230;28;20026;-79
2022/10/05 07:27:26;;;;;;;8.38;3.35;;;;;;;10.82;64.96;95092.41;5143681;27;20091;-79
2022/10/05 07:30:03;;;;;;;11.02;3.47;;;;;;;10.91;65.23;95081.94;5143028;27;20107;-79
2022/10/05 07:32:38;;;;;;;10.00;4.18;;;;;;;10.90;64.70;95075.00;5143129;27;20038;-78
2022/10/05 07:38:17;;;;;;;5.95;3.15;;;;;;;10.98;64.17;95076.22;5142106;27;20090;-78
2022/10/05 07:40:57;;;;;;;5.05;2.97;;;;;;;11.06;63.78;95072.16;5143226;27;20380;-77
2022/10/05 07:43:35;;;;;;;6.88;2.92;;;;;;;11.09;63.69;95075.00;5143992;27;20026;-78
2022/10/05 07:46:09;;;;;;;7.53;3.50;;;;;;;11.11;64.20;95085.41;5147228;27;20254;-78
2022/10/05 07:48:40;;;;;;;8.68;3.67;;;;;;;11.15;63.99;95089.09;5146956;27;20336;-76
2022/10/05 07:51:19;;;;;;;7.72;3.63;;;;;;;11.19;63.14;95084.78;5146550;27;20068;-77
2022/10/05 07:53:59;;;;;;;9.50;3.38;;;;;;;11.24;63.05;95082.06;5146575;27;20023;-78
2022/10/05 07:56:47;;;;;;;4.75;3.05;;;;;;;11.40;63.17;95080.78;5146790;27;20049;-77
2022/10/05 07:59:37;;;;;;;7.03;3.22;;;;;;;11.54;61.67;95085.38;5146449;27;20034;-78
2022/10/05 08:02:22;;;;;;;8.40;3.28;;;;;;;11.57;60.96;95092.81;5146293;27;20023;-77
2022/10/05 08:04:59;;;;;;;6.68;2.92;;;;;;;11.55;61.09;95092.31;5146339;27;20261;-78
2022/10/05 08:07:28;;;;;;;11.13;3.60;;;;;;;11.56;61.73;95099.22;5146503;27;20023;-78
2022/10/05 08:10:19;;;;;;;5.65;3.15;;;;;;;11.70;60.68;95101.97;5146647;27;20082;-79
2022/10/05 08:12:55;;;;;;;6.25;2.90;;;;;;;11.69;60.77;95097.72;5146066;27;20067;-77
2022/10/05 08:15:34;;;;;;;6.38;3.25;;;;;;;11.77;60.38;95099.75;5146067;27;20343;-79
2022/10/05 08:18:20;;;;;;;7.15;3.17;;;;;;;11.89;60.82;95104.69;5146213;27;20039;-77
2022/10/05 08:20:51;;;;;;;10.57;3.17;;;;;;;11.92;61.23;95106.75;5146099;27;20023;-77
2022/10/05 08:23:22;;;;;;;20.17;3.88;;;;;;;12.00;60.89;95106.09;5145823;27;20061;-76
2022/10/05 08:26:05;;;;;;;11.85;3.85;;;;;;;12.11;59.91;95110.22;5146025;27;20090;-76
2022/10/05 08:28:30;;;;;;;6.72;3.92;;;;;;;12.08;59.88;95113.47;5145677;27;20039;-75
2022/10/05 08:31:05;;;;;;;13.77;4.47;;;;;;;12.14;59.76;95114.19;5146176;27;20052;-78
2022/10/05 08:33:41;;;;;;;10.18;4.20;;;;;;;12.24;59.68;95114.00;5146211;27;20098;-79
2022/10/05 08:36:11;;;;;;;7.53;3.22;;;;;;;12.34;59.04;95119.19;5145731;27;20059;-77
2022/10/05 08:38:38;;;;;;;5.25;3.15;;;;;;;12.36;58.47;95114.34;5145925;27;20019;-78
2022/10/05 08:41:37;;;;;;;5.30;3.30;;;;;;;12.38;58.02;95103.38;5145544;27;20029;-76
2022/10/05 08:44:28;;;;;;;10.15;4.57;;;;;;;12.39;58.70;95108.41;5145616;27;20062;-77
2022/10/05 08:47:08;;;;;;;4.63;2.85;;;;;;;12.45;58.29;95099.19;5145700;27;20101;-77
2022/10/05 08:49:57;;;;;;;7.63;3.15;;;;;;;12.45;58.25;95106.44;5145286;27;20194;-77
2022/10/05 08:52:27;;;;;;;4.80;3.20;;;;;;;12.54;57.38;95102.00;5145560;27;20225;-77
2022/10/05 08:55:19;;;;;;;7.35;3.35;;;;;;;12.58;56.29;95097.66;5126986;27;20023;-78
2022/10/05 08:58:05;;;;;;;9.65;3.20;;;;;;;12.60;55.17;95106.19;5130976;27;20106;-77
2022/10/05 09:00:49;;;;;;;8.40;3.17;;;;;;;12.57;56.11;95097.94;5145455;27;20213;-77
2022/10/05 09:03:41;;;;;;;4.55;2.80;;;;;;;12.61;55.79;95091.69;5145223;27;20068;-78
2022/10/05 09:06:22;;;;;;;6.13;2.60;;;;;;;12.82;56.10;95102.03;5145184;27;20377;-79
2022/10/05 09:09:09;;;;;;;3.72;2.50;;;;;;;12.92;55.90;95107.19;5145430;27;20198;-82
2022/10/05 09:11:36;;;;;;;8.48;3.08;;;;;;;13.02;54.14;95112.34;5144864;27;20039;-79
2022/10/05 09:14:39;;;;;;;24.25;7.60;;;;;;;13.05;53.56;95100.25;5144985;27;20023;-79
2022/10/05 09:17:27;;;;;;;3.58;2.53;;;;;;;13.08;52.15;95106.91;5126490;27;20286;-82
2022/10/05 09:20:03;;;;;;;7.72;2.92;;;;;;;13.12;51.18;95105.22;5145039;27;20331;-79
2022/10/05 09:22:43;;;;;;;4.22;2.03;;;;;;;13.19;51.91;95109.06;5144820;27;20019;-79
2022/10/05 09:25:22;;;;;;;5.57;2.17;;;;;;;13.23;48.83;95106.59;5144976;27;20194;-79
2022/10/05 09:27:53;;;;;;;3.78;1.77;;;;;;;13.27;48.49;95104.09;5144826;27;20027;-79
2022/10/05 09:30:31;;;;;;;9.10;1.73;;;;;;;13.23;48.44;95101.25;5144544;27;20220;-77
2022/10/05 09:33:41;;;;;;;4.25;1.67;;;;;;;13.26;45.39;95100.63;5144838;27;20072;-80
2022/10/05 09:36:22;;;;;;;2.60;1.20;;;;;;;13.43;46.60;95105.41;5053930;27;20037;-79
2022/10/05 09:39:22;;;;;;;3.33;1.30;;;;;;;13.58;46.47;95106.97;5144594;27;20103;-77
2022/10/05 09:41:56;;;;;;;6.82;1.65;;;;;;;13.69;46.05;95105.66;5144594;27;20216;-83
2022/10/05 09:44:40;;;;;;;4.45;2.22;;;;;;;13.69;45.57;95105.66;5144245;27;20023;-77
2022/10/05 09:47:27;;;;;;;3.75;1.50;;;;;;;13.75;46.35;95109.00;5144542;27;20325;-78
2022/10/05 09:50:14;;;;;;;6.30;2.20;;;;;;;13.87;46.49;95103.13;5144890;27;20019;-79
2022/10/05 09:53:04;;;;;;;7.40;2.15;;;;;;;14.08;46.35;95109.56;5144328;27;20026;-81
2022/10/05 09:55:41;;;;;;;4.68;1.65;;;;;;;14.22;45.04;95113.00;5144183;27;20019;-79
2022/10/05 09:58:32;;;;;;;3.90;1.70;;;;;;;14.30;45.29;95111.47;5144594;27;20027;-80
2022/10/05 10:01:00;;;;;;;4.20;2.20;;;;;;;14.33;44.59;95104.69;5144374;27;20027;-78
2022/10/05 10:03:58;;;;;;;5.45;1.90;;;;;;;14.37;44.56;95105.66;5144615;27;20038;-78
2022/10/05 10:07:01;;;;;;;6.35;2.10;;;;;;;14.41;46.03;95103.97;5143810;27;20049;-82
2022/10/05 10:09:58;;;;;;;4.85;1.80;;;;;;;14.48;45.58;95100.88;5143907;27;20027;-79
2022/10/05 10:12:38;;;;;;;5.13;1.73;;;;;;;14.68;44.74;95107.63;5144133;27;20058;-84
2022/10/05 10:15:25;;;;;;;5.57;1.45;;;;;;;14.83;44.27;95104.53;5144408;27;20289;-84
2022/10/05 10:18:28;;;;;;;9.60;1.58;;;;;;;14.94;44.00;95097.00;5143877;27;20274;-84
2022/10/05 10:21:04;;;;;;;5.00;2.08;;;;;;;14.93;43.25;95109.63;5144120;27;20030;-84
2022/10/05 10:23:46;;;;;;;3.90;1.58;;;;;;;15.04;43.92;95102.91;5143829;27;20337;-83
2022/10/05 10:26:30;;;;;;;6.90;1.63;;;;;;;15.19;41.05;95117.00;5124844;27;20030;-83
2022/10/05 10:29:17;;;;;;;3.53;1.58;;;;;;;15.16;40.18;95106.84;5142363;27;20050;-83
2022/10/05 10:31:48;;;;;;;6.07;1.67;;;;;;;14.97;40.50;95121.31;5143356;28;20063;-83
2022/10/05 10:34:48;;;;;;;8.75;1.85;;;;;;;14.90;40.33;95107.56;5143981;27;20221;-83
2022/10/05 10:37:41;;;;;;;2.50;1.25;;;;;;;14.87;40.74;95097.44;5143957;27;20027;-83
2022/10/05 10:40:41;;;;;;;7.63;1.75;;;;;;;14.88;42.08;95098.22;5142147;28;20031;-83
2022/10/05 10:43:31;;;;;;;3.60;1.58;;;;;;;14.93;42.58;95090.84;5141893;27;20260;-82
2022/10/05 10:46:09;;;;;;;4.55;1.80;;;;;;;14.91;41.88;95084.97;5123812;28;20064;-83
2022/10/05 10:49:14;;;;;;;4.97;1.45;;;;;;;14.99;42.42;95084.22;5123781;28;20023;-82
2022/10/05 10:52:11;;;;;;;6.68;1.10;;;;;;;14.98;41.79;95082.66;5142173;27;20047;-82
2022/10/05 10:55:04;;;;;;;4.07;1.30;;;;;;;15.03;40.30;95082.50;5143334;28;20022;-83
2022/10/05 10:57:35;;;;;;;4.97;1.30;;;;;;;15.11;41.66;95072.13;5143558;28;20022;-82
2022/10/05 11:00:06;;;;;;;6.90;2.33;;;;;;;15.29;42.59;95060.31;5125296;27;20098;-82
2022/10/05 11:03:01;;;;;;;3.00;1.35;;;;;;;15.49;39.86;95071.53;5143948;27;20241;-83
2022/10/05 11:05:32;;;;;;;5.82;1.30;;;;;;;15.59;39.00;95057.78;5143925;28;20022;-83
2022/10/05 11:08:27;;;;;;;8.50;2.00;;;;;;;15.74;40.60;95060.06;5143629;28;20022;-82
2022/10/05 11:11:35;;;;;;;5.57;1.20;;;;;;;15.87;39.59;95046.78;5125588;28;20265;-83
2022/10/05 11:14:25;;;;;;;3.97;1.65;;;;;;;15.84;39.32;95042.81;5143572;27;20212;-82
2022/10/05 11:17:16;;;;;;;8.50;1.70;;;;;;;15.86;39.26;95040.63;5143420;28;20023;-83
2022/10/05 11:20:02;;;;;;;5.55;1.65;;;;;;;15.92;39.02;95043.94;5116923;27;20344;-82
2022/10/05 11:22:49;;;;;;;4.25;1.33;;;;;;;16.09;40.08;95045.81;5129078;27;20213;-82
2022/10/05 11:25:37;;;;;;;9.38;1.85;;;;;;;16.31;39.62;95044.81;5147166;27;20031;-83
2022/10/05 11:28:59;;;;;;;2.22;1.33;;;;;;;16.51;39.11;95041.44;5147541;27;20022;-83
2022/10/05 11:31:58;;;;;;;3.10;1.95;;;;;;;16.67;38.70;95033.63;5063974;28;20075;-83
2022/10/05 11:34:59;;;;;;;10.27;1.58;;;;;;;16.68;37.76;95037.88;5064136;28;20087;-84
2022/10/05 11:38:01;;;;;;;5.25;1.60;;;;;;;16.77;37.55;95027.09;5146587;27;20286;-82
2022/10/05 11:40:37;;;;;;;11.40;1.60;;;;;;;16.91;37.21;95030.38;5146685;27;20060;-84
2022/10/05 11:43:21;;;;;;;4.32;1.40;;;;;;;17.11;36.96;95025.38;5128659;27;20019;-84
2022/10/05 11:46:05;;;;;;;4.63;1.40;;;;;;;17.18;35.50;95025.66;5146979;27;20269;-84
2022/10/05 11:48:54;;;;;;;3.15;1.50;;;;;;;17.17;34.90;95024.06;5146936;27;20027;-84
2022/10/05 11:51:33;;;;;;;2.95;1.38;;;;;;;17.18;35.85;95022.97;5146684;27;20023;-83
2022/10/05 11:54:17;;;;;;;2.70;1.00;;;;;;;17.24;35.85;95022.44;5128507;27;20030;-84
2022/10/05 11:56:53;;;;;;;9.55;1.55;;;;;;;17.16;35.62;95014.41;5146886;27;20019;-83
2022/10/05 11:59:33;;;;;;;2.97;1.38;;;;;;;17.09;35.10;95014.91;5146849;27;20026;-82
2022/10/05 12:02:32;;;;;;;6.32;1.70;;;;;;;17.03;35.91;95000.84;5146632;27;20023;-82
2022/10/05 12:05:10;;;;;;;3.80;0.85;;;;;;;16.97;35.21;94999.44;5146560;27;20110;-82
2022/10/05 12:07:54;;;;;;;7.43;1.40;;;;;;;16.95;35.64;94996.28;5146044;27;20328;-82
2022/10/05 12:10:35;;;;;;;2.53;1.48;;;;;;;17.10;37.05;94996.88;5146447;27;20327;-82
2022/10/05 12:13:12;;;;;;;5.50;1.65;;;;;;;17.27;37.76;94999.44;5146288;27;20099;-82
2022/10/05 12:15:43;;;;;;;3.20;1.13;;;;;;;17.50;35.60;94999.91;5127882;27;20026;-82
2022/10/05 12:18:19;;;;;;;4.75;1.27;;;;;;;17.63;35.04;95000.75;5146139;27;20025;-81
2022/10/05 12:21:00;;;;;;;4.22;1.00;;;;;;;17.83;33.33;95010.00;5146276;27;20023;-83
2022/10/05 12:23:47;;;;;;;2.80;0.85;;;;;;;18.03;32.85;95013.75;5146387;27;20090;-82
2022/10/05 12:26:19;;;;;;;5.00;1.00;;;;;;;18.36;32.17;94999.44;5146342;27;20212;-81
2022/10/05 12:28:59;;;;;;;5.95;1.10;;;;;;;18.43;30.34;95005.88;5145593;27;20080;-81
2022/10/05 12:31:38;;;;;;;8.45;1.10;;;;;;;18.35;30.47;95009.47;5146008;27;20343;-82
2022/10/05 12:34:06;;;;;;;3.13;0.95;;;;;;;18.30;29.10;95006.19;5145977;27;20023;-82
2022/10/05 12:36:32;;;;;;;2.60;1.10;;;;;;;18.33;30.42;95010.94;5145671;27;20069;-81
2022/10/05 12:39:21;;;;;;;4.57;1.02;;;;;;;18.40;31.84;95005.78;5145884;27;20085;-82
2022/10/05 12:41:52;;;;;;;4.55;1.40;;;;;;;18.45;30.50;95009.03;5145664;27;20039;-82
2022/10/05 12:44:33;;;;;;;5.55;1.48;;;;;;;18.44;31.56;95012.09;5145773;27;20046;-82
2022/10/05 12:47:17;;;;;;;9.35;1.27;;;;;;;18.45;32.68;95008.25;5145522;27;20029;-82